Time;durP1;ratioP1;P1;durP2;ratioP2;P2;SDS_P1;SDS_P2;PMS_P1;PMS_P2;Temp;Humidity;BMP_temperature;BMP_pressure;BME280_temperature;BME280_humidity;BME280_pressure;Samples;Min_cycle;Max_cycle;Signal;HPM_P1;HPM_P2
2022/07/04 00:01:06;;;;;;;1.88;0.57;;;22.90;54.60;;;;;;6067964;23;86841;-86
2022/07/04 00:03:32;;;;;;;0.70;0.70;;;22.90;54.40;;;;;;6067295;23;88656;-86
2022/07/04 00:05:57;;;;;;;1.02;0.90;;;22.90;54.50;;;;;;6065844;23;88948;-86
2022/07/04 00:08:23;;;;;;;1.05;0.80;;;22.90;54.60;;;;;;6064491;23;86863;-87
2022/07/04 00:10:49;;;;;;;1.67;0.70;;;22.80;54.60;;;;;;6067428;23;87256;-86
2022/07/04 00:13:14;;;;;;;0.70;0.70;;;22.90;54.40;;;;;;6068177;23;87755;-86
2022/07/04 00:15:40;;;;;;;0.75;0.60;;;22.90;54.60;;;;;;6067560;23;86894;-86
2022/07/04 00:18:06;;;;;;;2.45;0.80;;;22.90;54.50;;;;;;6066287;23;88345;-87
2022/07/04 00:20:31;;;;;;;2.33;0.93;;;22.90;54.50;;;;;;6067187;23;87473;-86
2022/07/04 00:22:57;;;;;;;0.70;0.63;;;22.80;54.40;;;;;;6067110;23;88442;-85
2022/07/04 00:25:23;;;;;;;1.02;0.70;;;22.90;54.50;;;;;;6067336;23;89878;-86
2022/07/04 00:27:48;;;;;;;0.60;0.60;;;22.80;54.40;;;;;;6068382;23;87501;-86
2022/07/04 00:30:14;;;;;;;0.60;0.60;;;22.90;54.60;;;;;;6066204;23;89678;-86
2022/07/04 00:32:39;;;;;;;0.80;0.75;;;22.90;54.60;;;;;;6065867;23;90432;-86
2022/07/04 00:35:05;;;;;;;3.05;1.17;;;22.80;54.60;;;;;;6067983;23;87480;-86
2022/07/04 00:37:31;;;;;;;0.77;0.73;;;22.90;54.60;;;;;;6067107;23;87258;-87
2022/07/04 00:40:02;;;;;;;1.60;0.70;;;22.80;54.50;;;;;;6065773;23;89445;-86
2022/07/04 00:42:27;;;;;;;1.35;0.60;;;22.80;54.60;;;;;;6066848;23;89166;-87
2022/07/04 00:44:53;;;;;;;1.08;0.63;;;22.90;54.70;;;;;;6068153;23;87472;-86
2022/07/04 00:47:19;;;;;;;0.70;0.68;;;22.90;54.70;;;;;;6068556;23;88549;-86
2022/07/04 00:49:44;;;;;;;1.33;0.60;;;22.80;54.60;;;;;;6067767;23;87560;-84
2022/07/04 00:52:12;;;;;;;0.68;0.60;;;22.90;54.60;;;;;;6068758;23;86990;-86
2022/07/04 00:54:38;;;;;;;0.80;0.60;;;22.80;54.70;;;;;;6068226;23;87719;-87
2022/07/04 00:57:04;;;;;;;0.98;0.70;;;22.80;54.60;;;;;;6065861;23;87366;-86
2022/07/04 00:59:29;;;;;;;0.65;0.57;;;22.90;54.70;;;;;;6065301;23;89531;-87
2022/07/04 01:01:56;;;;;;;0.93;0.60;;;22.80;54.60;;;;;;6065352;23;90403;-87
2022/07/04 01:04:21;;;;;;;0.65;0.50;;;22.80;54.70;;;;;;6066045;23;89095;-87
2022/07/04 01:06:47;;;;;;;1.50;0.60;;;22.80;54.90;;;;;;6066729;23;86922;-85
2022/07/04 01:09:13;;;;;;;0.85;0.70;;;22.80;54.90;;;;;;6066947;23;87200;-86
2022/07/04 01:11:39;;;;;;;0.73;0.70;;;22.80;54.90;;;;;;6068567;23;88290;-86
2022/07/04 01:14:07;;;;;;;0.82;0.70;;;22.80;54.90;;;;;;6065380;23;89709;-86
2022/07/04 01:16:33;;;;;;;0.85;0.77;;;22.80;54.70;;;;;;6065524;23;87586;-87
2022/07/04 01:18:59;;;;;;;0.50;0.50;;;22.80;54.80;;;;;;6066304;23;87601;-88
2022/07/04 01:21:28;;;;;;;0.80;0.60;;;22.80;54.90;;;;;;6065858;23;90049;-85
2022/07/04 01:23:53;;;;;;;0.50;0.50;;;22.80;55.00;;;;;;6066225;23;89230;-86
2022/07/04 01:26:22;;;;;;;1.23;0.57;;;22.80;54.80;;;;;;6068718;23;87583;-85
2022/07/04 01:28:48;;;;;;;0.75;0.70;;;22.80;54.90;;;;;;6066640;23;89258;-86
2022/07/04 01:31:13;;;;;;;0.98;0.68;;;22.80;54.90;;;;;;6065348;23;89383;-86
2022/07/04 01:33:39;;;;;;;1.10;0.70;;;22.80;55.20;;;;;;6065703;23;90286;-87
2022/07/04 01:36:05;;;;;;;0.93;0.70;;;22.80;55.20;;;;;;6066068;23;87981;-86
2022/07/04 01:38:30;;;;;;;0.73;0.70;;;22.80;55.20;;;;;;6068741;23;86826;-85
2022/07/04 01:40:56;;;;;;;0.65;0.65;;;22.80;55.00;;;;;;6067900;23;87724;-85
2022/07/04 01:43:22;;;;;;;1.58;0.65;;;22.80;55.20;;;;;;6067341;23;89162;-86
2022/07/04 01:45:47;;;;;;;1.48;0.60;;;22.80;55.20;;;;;;6068709;23;86851;-85
2022/07/04 01:48:13;;;;;;;1.75;0.70;;;22.80;55.10;;;;;;6067582;23;87328;-87
2022/07/04 01:50:39;;;;;;;0.60;0.60;;;22.80;55.20;;;;;;6066326;23;90184;-86
2022/07/04 01:53:06;;;;;;;0.98;0.88;;;22.80;55.20;;;;;;6066400;23;90044;-86
2022/07/04 01:55:32;;;;;;;1.05;0.93;;;22.80;55.10;;;;;;6065968;23;87007;-87
2022/07/04 01:57:58;;;;;;;1.00;0.80;;;22.80;55.10;;;;;;6068532;23;87088;-87
2022/07/04 02:03:11;;;;;;;1.02;0.73;;;22.80;55.80;;;;;;6068720;23;87993;-87
2022/07/04 02:05:37;;;;;;;0.82;0.57;;;22.80;55.10;;;;;;6067795;23;87384;-86
2022/07/04 02:08:08;;;;;;;0.75;0.60;;;22.80;55.20;;;;;;6065861;23;88308;-87
2022/07/04 02:10:34;;;;;;;1.15;0.77;;;22.80;55.30;;;;;;6066908;23;90692;-87
2022/07/04 02:13:03;;;;;;;0.47;0.47;;;22.80;55.30;;;;;;6066959;23;88938;-86
2022/07/04 02:15:37;;;;;;;0.55;0.55;;;22.80;55.30;;;;;;6067544;23;87354;-86
2022/07/04 02:18:05;;;;;;;1.73;0.80;;;22.80;55.30;;;;;;6065904;23;89901;-85
2022/07/04 02:20:31;;;;;;;0.88;0.60;;;22.80;55.30;;;;;;6067332;23;88217;-86
2022/07/04 02:22:57;;;;;;;1.25;0.80;;;22.80;55.30;;;;;;6066880;23;90277;-86
2022/07/04 02:25:23;;;;;;;0.60;0.60;;;22.80;55.30;;;;;;6066988;23;88388;-86
2022/07/04 02:27:49;;;;;;;1.00;0.70;;;22.80;55.40;;;;;;6067195;23;88037;-86
2022/07/04 02:30:15;;;;;;;0.55;0.55;;;22.80;55.20;;;;;;6066695;23;87788;-86
2022/07/04 02:32:49;;;;;;;0.90;0.47;;;22.80;55.40;;;;;;6065811;23;89950;-85
2022/07/04 02:35:15;;;;;;;1.05;0.52;;;22.80;55.60;;;;;;6066721;23;87559;-85
2022/07/04 02:37:41;;;;;;;1.33;0.60;;;22.70;55.30;;;;;;6068269;23;86988;-86
2022/07/04 02:40:08;;;;;;;1.45;0.70;;;22.80;55.30;;;;;;6064852;23;91183;-86
2022/07/04 02:42:34;;;;;;;0.50;0.50;;;22.80;55.30;;;;;;6069419;23;87439;-85
2022/07/04 02:45:00;;;;;;;0.80;0.60;;;22.80;55.50;;;;;;6066176;23;87374;-86
2022/07/04 02:47:26;;;;;;;0.57;0.57;;;22.80;55.50;;;;;;6067804;23;87288;-86
2022/07/04 02:49:52;;;;;;;1.15;0.60;;;22.70;55.50;;;;;;6068127;23;88891;-87
2022/07/04 02:52:18;;;;;;;0.60;0.60;;;22.70;55.40;;;;;;6068578;23;88542;-87
2022/07/04 02:54:45;;;;;;;0.65;0.65;;;22.70;55.40;;;;;;6066672;23;87714;-86
2022/07/04 02:57:11;;;;;;;0.60;0.60;;;22.80;55.40;;;;;;6066469;23;89559;-86
2022/07/04 02:59:36;;;;;;;0.63;0.63;;;22.70;55.40;;;;;;6067735;23;88800;-87
2022/07/04 03:02:02;;;;;;;0.82;0.75;;;22.70;55.50;;;;;;6068795;23;88117;-86
2022/07/04 03:04:28;;;;;;;1.00;0.65;;;22.80;55.50;;;;;;6069353;23;87191;-86
2022/07/04 03:06:53;;;;;;;0.75;0.60;;;22.70;55.50;;;;;;6067806;23;89877;-85
2022/07/04 03:09:19;;;;;;;0.70;0.70;;;22.70;55.50;;;;;;6068779;23;86884;-87
2022/07/04 03:11:45;;;;;;;0.65;0.60;;;22.70;55.50;;;;;;6065895;23;88573;-86
2022/07/04 03:14:11;;;;;;;0.95;0.60;;;22.70;55.50;;;;;;6065319;23;88151;-87
2022/07/04 03:16:36;;;;;;;0.75;0.60;;;22.70;55.60;;;;;;6066416;23;89638;-86
2022/07/04 03:19:02;;;;;;;0.93;0.65;;;22.70;55.60;;;;;;6065797;23;90423;-86
2022/07/04 03:21:30;;;;;;;0.85;0.73;;;22.70;55.50;;;;;;6066798;23;89038;-85
2022/07/04 03:23:59;;;;;;;1.48;0.63;;;22.70;55.50;;;;;;6065696;23;87642;-86
2022/07/04 03:26:25;;;;;;;0.65;0.60;;;22.70;55.50;;;;;;6066843;23;86769;-87
2022/07/04 03:28:51;;;;;;;0.60;0.52;;;22.70;55.60;;;;;;6066861;23;90334;-88
2022/07/04 03:31:17;;;;;;;2.05;0.70;;;22.70;55.60;;;;;;6068608;23;87591;-86
2022/07/04 03:33:43;;;;;;;1.17;0.60;;;22.70;55.60;;;;;;6067623;23;87486;-85
2022/07/04 03:36:08;;;;;;;0.60;0.60;;;22.70;55.60;;;;;;6068426;23;87202;-86
2022/07/04 03:38:34;;;;;;;1.00;0.60;;;22.70;55.70;;;;;;6066646;23;90132;-85
2022/07/04 03:40:59;;;;;;;0.90;0.68;;;22.70;55.50;;;;;;6067157;23;87551;-86
2022/07/04 03:43:25;;;;;;;0.50;0.50;;;22.70;55.50;;;;;;6067868;23;87552;-85
2022/07/04 03:45:51;;;;;;;1.35;0.70;;;22.70;55.40;;;;;;6066072;23;87736;-86
2022/07/04 03:48:16;;;;;;;1.00;0.47;;;22.70;55.60;;;;;;6066821;23;87964;-85
2022/07/04 03:50:42;;;;;;;0.65;0.60;;;22.70;56.30;;;;;;6065554;23;89118;-86
2022/07/04 03:53:07;;;;;;;1.05;0.70;;;22.70;55.70;;;;;;6066763;23;86898;-87
2022/07/04 03:55:33;;;;;;;0.65;0.65;;;22.70;55.60;;;;;;6066650;23;89448;-86
2022/07/04 03:57:59;;;;;;;0.77;0.60;;;22.70;55.60;;;;;;6066180;23;89261;-86
2022/07/04 04:00:24;;;;;;;0.70;0.70;;;22.70;55.70;;;;;;6065754;23;90076;-87
2022/07/04 04:02:50;;;;;;;0.85;0.75;;;22.70;55.60;;;;;;6065076;23;88436;-86
2022/07/04 04:05:27;;;;;;;0.50;0.50;;;22.70;55.80;;;;;;6068219;23;88031;-86
2022/07/04 04:08:02;;;;;;;0.70;0.60;;;22.70;55.80;;;;;;6066359;23;89951;-86
2022/07/04 04:10:30;;;;;;;0.40;0.40;;;22.60;55.70;;;;;;6068125;23;87329;-85
2022/07/04 04:12:57;;;;;;;1.08;0.70;;;22.70;55.80;;;;;;6066683;23;86847;-87
2022/07/04 04:15:22;;;;;;;1.10;0.60;;;22.60;55.80;;;;;;6066848;23;87088;-86
2022/07/04 04:17:48;;;;;;;0.70;0.57;;;22.60;55.80;;;;;;6065607;23;90616;-86
2022/07/04 04:20:14;;;;;;;0.82;0.60;;;22.60;55.70;;;;;;6068483;23;88141;-86
2022/07/04 04:22:40;;;;;;;0.60;0.60;;;22.60;55.70;;;;;;6069077;23;86893;-86
2022/07/04 04:25:06;;;;;;;0.60;0.60;;;22.60;55.90;;;;;;6064043;23;87379;-87
2022/07/04 04:27:32;;;;;;;1.08;0.70;;;22.70;55.90;;;;;;6060653;23;91614;-86
2022/07/04 04:29:57;;;;;;;0.55;0.55;;;22.70;55.80;;;;;;6061976;23;88159;-86
2022/07/04 04:32:23;;;;;;;0.50;0.50;;;22.60;55.90;;;;;;6064020;23;87754;-87
2022/07/04 04:34:48;;;;;;;0.85;0.65;;;22.70;55.80;;;;;;6063956;23;87245;-85
2022/07/04 04:37:14;;;;;;;0.73;0.63;;;22.70;55.90;;;;;;6062045;23;90825;-86
2022/07/04 04:39:40;;;;;;;0.57;0.52;;;22.70;56.10;;;;;;6063680;23;88747;-87
2022/07/04 04:42:08;;;;;;;0.50;0.50;;;22.70;56.10;;;;;;6061444;23;87366;-86
2022/07/04 04:44:41;;;;;;;0.60;0.50;;;22.70;56.00;;;;;;6062462;23;89199;-87
2022/07/04 04:47:06;;;;;;;0.82;0.80;;;22.70;55.90;;;;;;6061005;23;90452;-86
2022/07/04 04:49:32;;;;;;;0.57;0.55;;;22.80;55.90;;;;;;6063371;23;88461;-86
2022/07/04 04:51:57;;;;;;;0.65;0.65;;;22.80;56.00;;;;;;6062160;23;88382;-85
2022/07/04 04:54:23;;;;;;;1.00;0.73;;;22.80;55.50;;;;;;6061738;23;89329;-86
2022/07/04 04:56:48;;;;;;;1.00;0.60;;;22.80;55.70;;;;;;6062768;23;88830;-87
2022/07/04 04:59:14;;;;;;;0.88;0.60;;;22.80;55.90;;;;;;6060945;23;89717;-86
2022/07/04 05:01:40;;;;;;;0.70;0.60;;;22.80;55.70;;;;;;6061860;23;87129;-86
2022/07/04 05:04:05;;;;;;;0.93;0.55;;;22.80;55.80;;;;;;6061115;23;89722;-85
2022/07/04 05:06:31;;;;;;;0.57;0.57;;;22.80;55.70;;;;;;6060203;23;90716;-86
2022/07/04 05:08:57;;;;;;;1.20;0.70;;;22.80;55.90;;;;;;6062590;23;89325;-87
2022/07/04 05:11:22;;;;;;;0.68;0.68;;;22.80;55.90;;;;;;6063086;23;86910;-86
2022/07/04 05:13:48;;;;;;;0.90;0.60;;;22.80;56.00;;;;;;6064847;23;87374;-86
2022/07/04 05:16:13;;;;;;;0.70;0.68;;;22.80;56.10;;;;;;6063790;23;88553;-86
2022/07/04 05:18:39;;;;;;;0.68;0.68;;;22.80;56.80;;;;;;6064025;23;88636;-86
2022/07/04 05:21:05;;;;;;;2.15;0.63;;;22.80;56.10;;;;;;6061366;23;87886;-85
2022/07/04 05:23:30;;;;;;;1.15;0.60;;;22.80;56.20;;;;;;6062935;23;89609;-85
2022/07/04 05:25:56;;;;;;;0.52;0.50;;;22.80;56.10;;;;;;6063587;23;88102;-87
2022/07/04 05:28:22;;;;;;;1.38;0.88;;;22.90;56.20;;;;;;6064331;23;87163;-87
2022/07/04 05:30:54;;;;;;;0.60;0.60;;;22.90;56.20;;;;;;6063339;23;87340;-86
2022/07/04 05:33:20;;;;;;;0.77;0.70;;;22.80;56.20;;;;;;6063359;23;89487;-86
2022/07/04 05:35:45;;;;;;;0.43;0.43;;;22.90;56.10;;;;;;6061561;23;87904;-85
2022/07/04 05:38:11;;;;;;;0.50;0.50;;;22.90;56.30;;;;;;6063524;23;87685;-86
2022/07/04 05:40:37;;;;;;;0.60;0.60;;;22.90;56.40;;;;;;6062507;23;88577;-86
2022/07/04 05:43:02;;;;;;;0.50;0.50;;;22.90;56.40;;;;;;6061444;23;89221;-87
2022/07/04 05:45:28;;;;;;;0.70;0.60;;;22.90;56.50;;;;;;6063492;23;87993;-85
2022/07/04 05:47:53;;;;;;;0.40;0.40;;;22.90;56.40;;;;;;6063553;23;87250;-86
2022/07/04 05:50:19;;;;;;;5.07;1.10;;;22.90;56.50;;;;;;6067111;23;87001;-85
2022/07/04 05:52:45;;;;;;;3.95;1.02;;;22.90;55.70;;;;;;6065844;23;87175;-90
2022/07/04 05:55:10;;;;;;;5.95;1.73;;;22.80;54.90;;;;;;6066629;23;86959;-89
2022/07/04 05:57:36;;;;;;;4.25;1.38;;;22.80;55.00;;;;;;6066898;23;87590;-84
2022/07/04 06:00:03;;;;;;;7.55;1.30;;;22.80;54.60;;;;;;6067111;23;87452;-87
2022/07/04 06:02:29;;;;;;;3.63;1.23;;;22.80;54.60;;;;;;6065719;23;87059;-84
2022/07/04 06:04:54;;;;;;;2.80;1.00;;;22.80;55.00;;;;;;6062774;23;91402;-86
2022/07/04 06:07:20;;;;;;;6.63;1.48;;;22.80;55.30;;;;;;6064803;23;88575;-84
2022/07/04 06:09:45;;;;;;;5.03;1.45;;;22.80;55.50;;;;;;6069152;23;86753;-88
2022/07/04 06:12:11;;;;;;;4.25;1.63;;;22.80;55.20;;;;;;6066012;23;88232;-89
2022/07/04 06:14:37;;;;;;;2.90;1.65;;;22.80;54.90;;;;;;6065604;23;88417;-88
2022/07/04 06:17:10;;;;;;;7.30;1.80;;;22.70;54.60;;;;;;6066762;23;87528;-86
2022/07/04 06:19:36;;;;;;;5.97;1.48;;;22.70;54.90;;;;;;6068091;23;87433;-92
2022/07/04 06:22:03;;;;;;;7.03;1.75;;;22.70;55.10;;;;;;6068721;23;89231;-88
2022/07/04 06:24:29;;;;;;;8.27;1.65;;;22.70;55.20;;;;;;6069595;23;87436;-88
2022/07/04 06:26:54;;;;;;;5.70;1.63;;;22.70;55.60;;;;;;6070106;23;88154;-85
2022/07/04 06:29:20;;;;;;;5.40;1.50;;;22.70;56.00;;;;;;6069688;23;88400;-86
2022/07/04 06:31:46;;;;;;;5.97;1.60;;;22.70;56.30;;;;;;6069190;23;87678;-90
2022/07/04 06:36:55;;;;;;;4.82;1.52;;;22.70;56.80;;;;;;6068696;23;87776;-87
2022/07/04 06:39:21;;;;;;;5.45;1.50;;;22.70;56.70;;;;;;6066322;23;86867;-85
2022/07/04 06:41:47;;;;;;;4.85;1.42;;;22.70;56.60;;;;;;6068596;23;87116;-90
2022/07/04 06:44:12;;;;;;;13.73;1.73;;;22.70;56.70;;;;;;6068910;23;88082;-84
2022/07/04 06:46:45;;;;;;;7.78;2.25;;;22.70;56.70;;;;;;6069690;23;87278;-85
2022/07/04 06:49:11;;;;;;;6.32;1.30;;;22.70;56.50;;;;;;6063357;23;87108;-91
2022/07/04 06:51:36;;;;;;;37.20;4.47;;;22.70;56.50;;;;;;6067883;23;87249;-93
2022/07/04 06:54:02;;;;;;;28.48;4.00;;;22.70;56.10;;;;;;6067189;23;89975;-92
2022/07/04 06:56:28;;;;;;;18.23;2.30;;;22.70;56.20;;;;;;6066446;23;90785;-93
2022/07/04 06:58:53;;;;;;;20.63;2.85;;;22.80;56.00;;;;;;6067703;23;87506;-91
2022/07/04 07:01:19;;;;;;;7.60;1.67;;;22.70;55.70;;;;;;6065713;23;89229;-88
2022/07/04 07:03:45;;;;;;;8.23;1.63;;;22.80;55.80;;;;;;6060551;23;88359;-88
2022/07/04 07:06:11;;;;;;;5.82;1.40;;;22.80;55.90;;;;;;6068535;23;89165;-88
2022/07/04 07:08:36;;;;;;;6.03;1.58;;;22.80;55.30;;;;;;6068847;23;87219;-89
2022/07/04 07:11:17;;;;;;;9.05;1.35;;;22.80;55.20;;;;;;6070438;23;86763;-87
2022/07/04 07:13:45;;;;;;;3.38;1.10;;;22.80;55.20;;;;;;6069431;23;88037;-89
2022/07/04 07:16:11;;;;;;;6.70;1.10;;;22.80;55.00;;;;;;6068401;23;87233;-82
2022/07/04 07:18:36;;;;;;;5.93;1.30;;;22.80;55.00;;;;;;6067970;23;88481;-86
2022/07/04 07:21:03;;;;;;;17.80;2.72;;;22.80;55.00;;;;;;6066836;23;89294;-89
2022/07/04 07:23:33;;;;;;;5.82;1.85;;;22.80;55.10;;;;;;6068439;23;87426;-91
2022/07/04 07:25:59;;;;;;;22.35;3.30;;;22.80;55.20;;;;;;6067457;23;87217;-93
2022/07/04 07:28:25;;;;;;;22.88;3.80;;;22.80;55.20;;;;;;6066380;23;87595;-84
2022/07/04 07:30:50;;;;;;;31.65;5.47;;;22.80;55.30;;;;;;6067907;23;87161;-84
2022/07/04 07:33:16;;;;;;;21.55;4.18;;;22.80;55.30;;;;;;6068080;23;87941;-83
2022/07/04 07:35:41;;;;;;;19.10;4.35;;;22.80;55.00;;;;;;6066651;23;87202;-86
2022/07/04 07:38:07;;;;;;;28.50;6.00;;;22.80;54.90;;;;;;6069804;23;87859;-93
2022/07/04 07:40:33;;;;;;;17.73;3.47;;;22.80;55.80;;;;;;6069550;23;87250;-92
2022/07/04 07:42:58;;;;;;;22.15;3.45;;;22.80;55.50;;;;;;6067191;23;91299;-90
2022/07/04 07:45:24;;;;;;;13.82;3.15;;;22.80;55.70;;;;;;6067649;23;88467;-94
2022/07/04 07:47:50;;;;;;;14.20;2.78;;;22.80;54.90;;;;;;6071344;23;86913;-95
2022/07/04 07:50:15;;;;;;;12.07;2.55;;;22.80;55.30;;;;;;6069374;23;87370;-91
2022/07/04 07:52:41;;;;;;;13.55;2.75;;;22.80;55.50;;;;;;6070376;23;88093;-88
2022/07/04 07:55:07;;;;;;;11.27;2.40;;;22.80;55.70;;;;;;6070609;23;87503;-92
2022/07/04 07:57:33;;;;;;;17.95;3.05;;;22.90;55.70;;;;;;6066070;23;87293;-89
2022/07/04 07:59:59;;;;;;;39.25;4.55;;;22.80;55.90;;;;;;6071209;23;87069;-94
2022/07/04 08:05:11;;;;;;;20.73;3.25;;;22.80;56.20;;;;;;6068246;23;86910;-93
2022/07/04 08:07:37;;;;;;;21.10;4.50;;;22.80;54.90;;;;;;6067945;23;88203;-91
2022/07/04 08:10:03;;;;;;;28.48;3.53;;;22.80;54.90;;;;;;6067504;23;87144;-90
2022/07/04 08:12:29;;;;;;;19.05;3.55;;;22.80;55.70;;;;;;6069902;23;87724;-92
2022/07/04 08:14:54;;;;;;;17.48;3.35;;;22.80;55.80;;;;;;6069289;23;87539;-92
2022/07/04 08:17:20;;;;;;;19.40;3.40;;;22.80;56.60;;;;;;6069743;23;87775;-94
2022/07/04 08:19:45;;;;;;;18.52;3.00;;;22.90;55.60;;;;;;6068082;23;88917;-90
2022/07/04 08:22:11;;;;;;;7.35;2.08;;;22.80;55.30;;;;;;6067992;23;87374;-90
2022/07/04 08:24:36;;;;;;;11.18;2.20;;;22.80;55.30;;;;;;6068755;23;87275;-92
2022/07/04 08:27:02;;;;;;;10.57;2.78;;;22.80;55.00;;;;;;6068964;23;86700;-86
2022/07/04 08:29:31;;;;;;;15.52;2.85;;;22.80;55.50;;;;;;6068024;23;88372;-90
2022/07/04 08:31:57;;;;;;;15.00;2.72;;;22.80;55.50;;;;;;6067857;23;89452;-93
2022/07/04 08:34:22;;;;;;;11.90;3.25;;;22.80;55.90;;;;;;6068280;23;88145;-87
2022/07/04 08:36:50;;;;;;;15.32;2.58;;;22.80;56.40;;;;;;6067851;23;88456;-91
2022/07/04 08:39:16;;;;;;;7.45;1.98;;;22.80;56.70;;;;;;6066128;23;88524;-84
2022/07/04 08:41:44;;;;;;;7.30;1.60;;;22.90;55.60;;;;;;6068791;23;87107;-92
2022/07/04 08:44:11;;;;;;;14.65;2.00;;;22.80;55.40;;;;;;6067626;23;87322;-92
2022/07/04 08:46:39;;;;;;;9.38;2.20;;;22.90;55.80;;;;;;6069808;23;86890;-89
2022/07/04 08:49:14;;;;;;;5.18;1.42;;;22.80;54.80;;;;;;6069541;23;86504;-87
2022/07/04 08:52:10;;;;;;;8.85;1.50;;;22.80;54.00;;;;;;6068198;23;87258;-91
2022/07/04 09:00:17;;;;;;;7.53;2.03;;;22.80;55.60;;;;;;5988124;23;87591;-87
2022/07/04 09:02:43;;;;;;;10.70;2.00;;;22.80;55.70;;;;;;6067415;23;87409;-86
2022/07/04 09:05:09;;;;;;;10.68;2.15;;;22.80;55.50;;;;;;6067668;23;87412;-88
2022/07/04 09:07:34;;;;;;;8.45;1.75;;;22.90;55.70;;;;;;6068405;23;87031;-89
2022/07/04 09:10:02;;;;;;;10.23;2.03;;;22.90;56.20;;;;;;6067090;23;86951;-90
2022/07/04 09:12:28;;;;;;;11.65;1.80;;;22.90;56.00;;;;;;6067191;23;88563;-93
2022/07/04 09:14:56;;;;;;;7.22;1.65;;;22.90;54.70;;;;;;6069703;23;87181;-81
2022/07/04 09:17:22;;;;;;;4.30;1.40;;;22.90;54.10;;;;;;6069158;23;87520;-91
2022/07/04 09:20:18;;;;;;;4.88;1.70;;;22.90;54.30;;;;;;6066962;23;90452;-82
2022/07/04 09:22:45;;;;;;;5.18;1.80;;;22.90;54.90;;;;;;6067275;23;88504;-89
2022/07/04 09:25:19;;;;;;;6.82;1.20;;;22.90;54.70;;;;;;6067620;23;89233;-96
2022/07/04 09:27:56;;;;;;;4.22;1.00;;;22.90;53.90;;;;;;6067385;23;86899;-84
2022/07/04 09:30:27;;;;;;;7.95;1.40;;;22.90;53.10;;;;;;6064063;23;89497;-82
2022/07/04 09:33:02;;;;;;;2.20;0.93;;;22.90;53.00;;;;;;6066682;23;87251;-91
2022/07/04 09:35:32;;;;;;;5.43;1.30;;;22.90;53.10;;;;;;6065609;23;88277;-94
2022/07/04 09:38:02;;;;;;;3.97;1.33;;;22.90;53.80;;;;;;6064884;23;87459;-84
2022/07/04 09:40:30;;;;;;;7.78;1.60;;;22.80;53.50;;;;;;6066202;23;86180;-89
2022/07/04 09:43:10;;;;;;;19.55;2.25;;;22.90;54.50;;;;;;6067275;23;87132;-85
2022/07/04 09:45:52;;;;;;;12.65;2.17;;;22.90;53.90;;;;;;6067507;23;87333;-83
2022/07/04 09:48:17;;;;;;;5.15;1.25;;;22.90;54.50;;;;;;6066134;23;88803;-86
2022/07/04 09:50:43;;;;;;;7.03;1.45;;;22.90;53.30;;;;;;6065472;23;87384;-83
2022/07/04 09:53:09;;;;;;;4.43;1.10;;;22.90;52.80;;;;;;6065893;23;87669;-83
2022/07/04 09:55:39;;;;;;;6.68;1.48;;;22.90;52.60;;;;;;6066649;23;87111;-84
2022/07/04 09:58:10;;;;;;;5.30;1.55;;;22.90;53.60;;;;;;6067345;23;87044;-82
2022/07/04 10:00:41;;;;;;;8.55;1.40;;;22.90;53.70;;;;;;6066392;23;87199;-88
2022/07/04 10:03:38;;;;;;;6.75;1.35;;;22.90;53.40;;;;;;6067695;23;87497;-82
2022/07/04 10:06:12;;;;;;;6.05;1.23;;;22.90;53.00;;;;;;6043582;23;87000;-84
2022/07/04 10:08:39;;;;;;;5.15;1.13;;;22.90;53.30;;;;;;6067180;23;87336;-87
2022/07/04 10:11:05;;;;;;;6.53;1.45;;;22.90;53.20;;;;;;6066981;23;87160;-83
2022/07/04 10:13:31;;;;;;;4.85;1.10;;;22.90;52.30;;;;;;6067376;23;88170;-82
2022/07/04 10:15:58;;;;;;;4.80;1.10;;;22.90;51.40;;;;;;6066686;23;88122;-85
2022/07/04 10:18:24;;;;;;;4.13;0.88;;;22.90;50.80;;;;;;6066186;23;86991;-83
2022/07/04 10:20:51;;;;;;;6.38;1.30;;;22.90;51.40;;;;;;6065846;23;87151;-85
2022/07/04 10:23:18;;;;;;;3.88;1.27;;;22.90;51.70;;;;;;6061314;23;90313;-82
2022/07/04 10:25:48;;;;;;;8.85;2.08;;;22.90;52.50;;;;;;6065204;23;87275;-85
2022/07/04 10:28:14;;;;;;;3.75;1.15;;;22.90;51.10;;;;;;6066022;23;86954;-85
2022/07/04 10:30:43;;;;;;;1.42;0.73;;;22.90;51.40;;;;;;6066924;23;86717;-88
2022/07/04 10:33:10;;;;;;;1.83;0.60;;;22.90;50.80;;;;;;6065827;23;87515;-81
2022/07/04 10:35:56;;;;;;;4.82;1.00;;;23.00;50.70;;;;;;6064934;23;87236;-86
2022/07/04 10:38:23;;;;;;;4.63;1.10;;;22.90;50.60;;;;;;6066167;23;88497;-87
2022/07/04 10:40:59;;;;;;;2.95;1.08;;;22.90;50.30;;;;;;6065820;23;87323;-80
2022/07/04 10:43:31;;;;;;;3.70;1.20;;;22.90;50.00;;;;;;6066649;23;87633;-81
2022/07/04 10:46:29;;;;;;;3.42;0.80;;;22.90;50.00;;;;;;6065285;23;88354;-86
2022/07/04 10:49:05;;;;;;;3.95;0.85;;;22.90;50.10;;;;;;6065976;23;87241;-83
2022/07/04 10:51:44;;;;;;;2.65;0.93;;;22.90;49.70;;;;;;6066447;23;87497;-90
2022/07/04 10:54:32;;;;;;;2.08;0.85;;;22.90;50.10;;;;;;6066569;23;87951;-82
2022/07/04 10:57:08;;;;;;;2.83;0.80;;;23.00;50.10;;;;;;6066083;23;90123;-86
2022/07/04 10:59:34;;;;;;;3.72;1.30;;;23.00;50.30;;;;;;6066568;23;87524;-88
2022/07/04 11:02:11;;;;;;;2.25;0.77;;;22.90;50.70;;;;;;6067209;23;86890;-89
2022/07/04 11:04:47;;;;;;;19.73;1.42;;;22.90;50.00;;;;;;6068015;23;88411;-88
2022/07/04 11:07:18;;;;;;;9.38;1.35;;;23.00;59.00;;;;;;6066088;23;88294;-88
2022/07/04 11:10:04;;;;;;;3.58;1.13;;;23.00;64.50;;;;;;6068579;23;87645;-88
2022/07/04 11:12:29;;;;;;;2.65;0.80;;;22.90;60.60;;;;;;6068776;23;87342;-89
2022/07/04 11:14:55;;;;;;;2.72;0.80;;;22.90;55.50;;;;;;6068498;23;87587;-88
2022/07/04 11:17:33;;;;;;;1.27;0.75;;;23.00;52.70;;;;;;6065575;23;87189;-88
2022/07/04 11:20:03;;;;;;;4.07;0.80;;;22.90;52.30;;;;;;6064829;23;87198;-88
2022/07/04 11:22:29;;;;;;;3.15;0.90;;;22.90;51.00;;;;;;6067053;23;88919;-90
2022/07/04 11:24:55;;;;;;;3.28;0.95;;;23.00;52.60;;;;;;6062853;23;87677;-91
2022/07/04 11:27:22;;;;;;;3.08;0.88;;;22.90;52.40;;;;;;6065442;23;88013;-83
2022/07/04 11:29:55;;;;;;;2.40;0.60;;;22.90;52.50;;;;;;6065509;23;88131;-84
2022/07/04 11:32:30;;;;;;;7.72;0.82;;;22.90;52.20;;;;;;6061255;23;89554;-83
2022/07/04 11:34:56;;;;;;;4.78;1.17;;;22.90;52.30;;;;;;6064921;23;87834;-83
2022/07/04 11:37:22;;;;;;;1.50;0.68;;;22.90;53.00;;;;;;6064212;23;87126;-85
2022/07/04 11:39:52;;;;;;;3.58;0.80;;;22.90;53.00;;;;;;6063638;23;87594;-87
2022/07/04 11:45:02;;;;;;;4.75;1.08;;;22.90;53.10;;;;;;6064792;23;87430;-86
2022/07/04 11:47:38;;;;;;;3.28;0.98;;;22.90;53.40;;;;;;6066741;23;89079;-84
2022/07/04 11:50:12;;;;;;;5.18;1.00;;;22.90;53.80;;;;;;6066238;23;86809;-86
2022/07/04 11:52:37;;;;;;;4.97;1.00;;;22.90;53.90;;;;;;6065387;23;87266;-83
2022/07/04 11:55:14;;;;;;;2.10;0.88;;;22.90;54.00;;;;;;6064602;23;89011;-86
2022/07/04 11:57:43;;;;;;;6.70;1.15;;;22.90;54.20;;;;;;6065776;23;88047;-89
2022/07/04 12:00:13;;;;;;;2.90;0.88;;;22.90;54.10;;;;;;6066744;23;87163;-84
2022/07/04 12:02:39;;;;;;;3.50;1.58;;;22.90;54.40;;;;;;6064376;23;86885;-86
2022/07/04 12:05:07;;;;;;;4.85;0.90;;;22.90;54.30;;;;;;6063898;23;90608;-85
2022/07/04 12:07:35;;;;;;;2.90;1.00;;;22.90;54.70;;;;;;6068319;23;87244;-89
2022/07/04 12:10:12;;;;;;;3.97;1.10;;;22.90;54.90;;;;;;6066608;23;87292;-89
2022/07/04 12:12:54;;;;;;;4.32;1.15;;;22.90;54.60;;;;;;6068356;23;86813;-90
2022/07/04 12:15:21;;;;;;;4.47;1.30;;;22.90;54.80;;;;;;6062963;23;89290;-85
2022/07/04 12:17:51;;;;;;;10.48;1.30;;;22.90;54.80;;;;;;6064238;23;87285;-85
2022/07/04 12:20:18;;;;;;;8.00;1.50;;;22.90;54.80;;;;;;6064741;23;88313;-83
2022/07/04 12:22:49;;;;;;;7.68;1.50;;;22.90;54.60;;;;;;6063227;23;87572;-87
2022/07/04 12:25:23;;;;;;;3.90;1.10;;;22.90;54.80;;;;;;6064031;23;87265;-87
2022/07/04 12:27:55;;;;;;;7.00;1.55;;;22.90;54.30;;;;;;6063822;23;87470;-86
2022/07/04 12:30:21;;;;;;;6.75;1.52;;;22.90;54.60;;;;;;6064216;23;87046;-84
2022/07/04 12:32:59;;;;;;;8.75;1.67;;;22.90;54.70;;;;;;6063517;23;87275;-89
2022/07/04 12:35:37;;;;;;;4.20;1.63;;;22.90;54.80;;;;;;6062546;23;90110;-86
2022/07/04 12:38:23;;;;;;;5.82;1.67;;;22.90;54.90;;;;;;6065992;23;87077;-88
2022/07/04 12:41:12;;;;;;;6.50;1.70;;;22.90;55.20;;;;;;6064994;23;87463;-85
2022/07/04 12:43:41;;;;;;;5.13;1.45;;;22.90;55.10;;;;;;6063220;23;87451;-87
2022/07/04 12:46:32;;;;;;;9.73;1.60;;;22.90;55.10;;;;;;6061847;23;88159;-86
2022/07/04 12:49:00;;;;;;;6.70;1.15;;;22.90;55.00;;;;;;6062556;23;89217;-87
2022/07/04 12:51:33;;;;;;;4.03;1.75;;;22.90;54.90;;;;;;6063315;23;87344;-82
2022/07/04 12:54:06;;;;;;;6.30;1.60;;;22.90;54.90;;;;;;6066576;23;86881;-86
2022/07/04 12:56:38;;;;;;;8.55;1.73;;;22.90;55.00;;;;;;6063345;23;87644;-85
2022/07/04 12:59:06;;;;;;;7.90;1.20;;;22.90;55.00;;;;;;6062058;23;89006;-87
2022/07/04 13:01:32;;;;;;;5.68;1.25;;;22.90;54.90;;;;;;6064405;23;87341;-84
2022/07/04 13:03:59;;;;;;;3.72;1.30;;;22.90;54.80;;;;;;6065913;23;86693;-85
2022/07/04 13:06:26;;;;;;;8.60;1.70;;;23.00;54.90;;;;;;6063835;23;88010;-84